Time;durP1;ratioP1;P1;durP2;ratioP2;P2;SDS_P1;SDS_P2;PMS_P1;PMS_P2;Temp;Humidity;BMP_temperature;BMP_pressure;BME280_temperature;BME280_humidity;BME280_pressure;Samples;Min_cycle;Max_cycle;Signal;HPM_P1;HPM_P2
2021/01/09 00:01:00;;;;;;;35.25;20.33;;;;;;;3.06;66.07;100102.84;4451201;32;33674;-80
2021/01/09 00:03:29;;;;;;;34.10;19.25;;;;;;;3.15;65.44;100092.34;4450093;32;33796;-80
2021/01/09 00:05:56;;;;;;;35.53;19.67;;;;;;;3.26;65.15;100087.03;4447159;32;33737;-80
2021/01/09 00:08:23;;;;;;;34.85;19.30;;;;;;;2.75;67.29;100103.09;4448645;32;34788;-80
2021/01/09 00:10:51;;;;;;;39.17;18.60;;;;;;;2.96;66.09;100094.25;4434742;32;33357;-79
2021/01/09 00:13:18;;;;;;;40.78;20.00;;;;;;;3.23;65.11;100094.87;4447129;32;34481;-80
2021/01/09 00:15:46;;;;;;;43.15;21.83;;;;;;;3.36;64.41;100100.84;4459141;32;33738;-80
2021/01/09 00:18:13;;;;;;;37.90;20.27;;;;;;;3.12;65.13;100108.00;4461104;32;34309;-80
2021/01/09 00:20:40;;;;;;;34.95;19.12;;;;;;;3.05;65.62;100108.97;4446393;32;33637;-80
2021/01/09 00:23:08;;;;;;;34.97;18.58;;;;;;;2.78;65.94;100113.50;4462924;32;33942;-80
2021/01/09 00:25:36;;;;;;;35.28;19.17;;;;;;;2.88;65.70;100113.44;4448365;32;33542;-80
2021/01/09 00:28:03;;;;;;;39.38;19.00;;;;;;;2.67;66.99;100110.09;4459913;32;34824;-80
2021/01/09 00:30:30;;;;;;;39.53;19.80;;;;;;;2.70;67.66;100109.22;4463561;32;32632;-80
2021/01/09 00:32:58;;;;;;;39.95;19.52;;;;;;;2.91;67.09;100114.28;4462822;32;33040;-80
2021/01/09 00:35:25;;;;;;;37.53;19.00;;;;;;;2.72;68.38;100113.53;4459584;32;34263;-80
2021/01/09 00:37:52;;;;;;;36.78;19.60;;;;;;;3.20;66.97;100115.78;4461767;32;33405;-80
2021/01/09 00:40:20;;;;;;;40.20;19.58;;;;;;;2.74;68.76;100114.38;4462473;32;33430;-80
2021/01/09 00:42:48;;;;;;;38.30;19.10;;;;;;;2.95;68.03;100117.75;4457701;32;33258;-81
2021/01/09 00:45:15;;;;;;;40.65;20.30;;;;;;;3.10;67.50;100115.00;4464562;32;33648;-80
2021/01/09 00:47:43;;;;;;;40.63;20.15;;;;;;;2.80;68.54;100113.47;4460996;32;33376;-80
2021/01/09 00:50:12;;;;;;;37.08;18.40;;;;;;;3.05;67.84;100111.56;4448937;32;33583;-80
2021/01/09 00:52:40;;;;;;;38.03;19.15;;;;;;;3.38;66.79;100115.63;4446308;32;34109;-81
2021/01/09 00:55:08;;;;;;;41.53;19.40;;;;;;;3.33;66.65;100118.28;4461273;32;33297;-82
2021/01/09 00:57:35;;;;;;;38.13;20.10;;;;;;;2.87;68.50;100123.00;4447772;32;33714;-82
2021/01/09 01:00:05;;;;;;;35.95;18.27;;;;;;;2.80;68.33;100116.97;4461584;32;33838;-82
2021/01/09 01:02:32;;;;;;;44.88;20.40;;;;;;;3.16;67.71;100120.16;4458220;32;33382;-82
2021/01/09 01:04:59;;;;;;;40.97;19.85;;;;;;;3.13;67.58;100125.41;4463101;32;34533;-82
2021/01/09 01:07:28;;;;;;;35.78;17.75;;;;;;;3.29;66.99;100121.78;4449360;32;35050;-82
2021/01/09 01:09:56;;;;;;;38.78;19.35;;;;;;;3.34;66.87;100120.00;4460175;32;34191;-82
2021/01/09 01:12:23;;;;;;;41.05;18.33;;;;;;;3.29;67.20;100123.53;4447775;32;33279;-81
2021/01/09 01:14:50;;;;;;;43.47;20.00;;;;;;;3.08;67.79;100127.19;4447800;32;33712;-82
2021/01/09 01:17:17;;;;;;;44.65;20.60;;;;;;;2.74;69.55;100127.44;4460863;32;34487;-82
2021/01/09 01:19:44;;;;;;;41.50;20.48;;;;;;;2.64;70.25;100133.59;4437549;32;34038;-82
2021/01/09 01:22:12;;;;;;;44.03;21.35;;;;;;;2.81;69.02;100129.13;4436824;32;33223;-82
2021/01/09 01:24:39;;;;;;;44.20;20.80;;;;;;;2.60;69.85;100138.81;4460392;32;33661;-82
2021/01/09 01:27:06;;;;;;;43.00;20.27;;;;;;;2.60;69.87;100134.47;4462675;32;32357;-82
2021/01/09 01:29:33;;;;;;;46.33;20.88;;;;;;;2.76;69.28;100133.50;4461413;32;33335;-82
2021/01/09 01:32:02;;;;;;;42.62;19.92;;;;;;;3.12;68.19;100141.06;4463091;32;33011;-82
2021/01/09 01:34:29;;;;;;;43.83;19.52;;;;;;;3.02;68.08;100137.66;4443425;32;33214;-82
2021/01/09 01:36:57;;;;;;;38.78;18.90;;;;;;;2.96;68.37;100135.97;4447726;32;33589;-82
2021/01/09 01:39:24;;;;;;;44.05;20.08;;;;;;;2.87;68.25;100135.19;4447918;32;33123;-82
2021/01/09 01:41:55;;;;;;;39.88;18.87;;;;;;;3.13;67.79;100141.03;4463070;32;32961;-82
2021/01/09 01:44:22;;;;;;;40.08;18.35;;;;;;;3.24;66.83;100139.25;4430335;32;35482;-82
2021/01/09 01:46:50;;;;;;;46.20;21.42;;;;;;;2.97;68.01;100135.09;4457842;32;33694;-81
2021/01/09 01:49:17;;;;;;;40.12;18.37;;;;;;;3.20;66.66;100145.34;4448818;32;33518;-81
2021/01/09 01:51:44;;;;;;;39.63;18.42;;;;;;;3.33;66.42;100133.06;4460119;32;34240;-82
2021/01/09 01:54:12;;;;;;;39.22;17.70;;;;;;;3.26;66.60;100137.47;4446743;32;33557;-82
2021/01/09 01:56:40;;;;;;;46.03;18.45;;;;;;;3.14;67.25;100145.41;4460491;32;33418;-81
2021/01/09 01:59:07;;;;;;;39.58;18.23;;;;;;;3.09;67.38;100152.41;4457726;32;34550;-81
2021/01/09 02:01:34;;;;;;;39.55;18.85;;;;;;;2.96;68.08;100148.16;4459240;32;33255;-80
2021/01/09 02:04:03;;;;;;;43.63;18.52;;;;;;;2.96;67.62;100142.94;4462748;32;33447;-80
2021/01/09 02:06:34;;;;;;;40.35;18.20;;;;;;;2.91;68.05;100144.72;4445291;32;34433;-80
2021/01/09 02:09:07;;;;;;;43.83;18.58;;;;;;;3.08;67.34;100141.09;4461328;32;34922;-80
2021/01/09 02:12:00;;;;;;;42.47;18.90;;;;;;;2.46;69.50;100141.50;4461238;32;33265;-82
2021/01/09 02:14:35;;;;;;;38.60;16.70;;;;;;;2.81;68.14;100138.69;4462301;32;33286;-81
2021/01/09 02:17:05;;;;;;;37.75;17.50;;;;;;;2.87;67.80;100140.41;4458415;32;33143;-81
2021/01/09 02:19:35;;;;;;;42.90;18.25;;;;;;;3.09;66.63;100141.97;4446406;32;33598;-81
2021/01/09 02:22:04;;;;;;;42.13;17.48;;;;;;;3.06;66.81;100144.59;4447348;32;33257;-81
2021/01/09 02:24:32;;;;;;;42.55;17.77;;;;;;;3.11;66.42;100142.81;4461835;32;33065;-79
2021/01/09 02:27:03;;;;;;;41.78;18.27;;;;;;;3.00;67.17;100140.31;4460234;32;34943;-80
2021/01/09 02:29:33;;;;;;;39.80;18.70;;;;;;;2.69;68.18;100144.84;4446526;32;34359;-79
2021/01/09 02:32:03;;;;;;;39.28;18.75;;;;;;;3.02;67.25;100148.09;4445576;32;32907;-80
2021/01/09 02:34:48;;;;;;;44.65;19.98;;;;;;;2.77;67.91;100143.06;4459131;32;34658;-79
2021/01/09 02:37:18;;;;;;;44.22;19.08;;;;;;;2.91;67.50;100156.00;4448293;32;32648;-80
2021/01/09 02:39:45;;;;;;;40.10;18.23;;;;;;;2.99;67.23;100162.06;4446550;32;33846;-79
2021/01/09 02:42:12;;;;;;;45.12;19.20;;;;;;;3.10;66.90;100156.75;4457402;32;33386;-80
2021/01/09 02:44:40;;;;;;;47.03;20.08;;;;;;;3.08;66.95;100161.09;4449584;32;34489;-80
2021/01/09 02:47:07;;;;;;;40.28;18.87;;;;;;;3.01;66.96;100159.41;4459750;32;33196;-80
2021/01/09 02:49:35;;;;;;;41.40;19.23;;;;;;;3.25;65.43;100156.63;4459897;32;33698;-79
2021/01/09 02:52:03;;;;;;;39.83;18.25;;;;;;;3.18;65.90;100149.72;4456600;32;33207;-79
2021/01/09 02:54:30;;;;;;;36.25;17.75;;;;;;;3.21;65.82;100154.91;4459971;32;33659;-80
2021/01/09 02:56:57;;;;;;;36.30;17.77;;;;;;;3.33;65.30;100147.00;4447128;32;35206;-80
2021/01/09 02:59:24;;;;;;;37.75;17.87;;;;;;;3.51;64.29;100152.91;4445134;32;33928;-80
2021/01/09 03:01:51;;;;;;;35.67;17.80;;;;;;;3.34;64.57;100151.31;4462344;32;32902;-79
2021/01/09 03:04:19;;;;;;;41.65;18.65;;;;;;;3.40;64.45;100149.53;4447881;32;33679;-80
2021/01/09 03:06:46;;;;;;;37.78;18.33;;;;;;;3.49;63.80;100160.75;4446691;32;33715;-80
2021/01/09 03:09:13;;;;;;;35.58;17.87;;;;;;;3.57;63.32;100158.94;4446709;32;32672;-82
2021/01/09 03:11:41;;;;;;;36.08;17.33;;;;;;;3.17;64.33;100155.81;4458964;32;33228;-81
2021/01/09 03:14:08;;;;;;;34.55;17.17;;;;;;;3.39;63.82;100158.25;4457392;32;33760;-80
2021/01/09 03:16:35;;;;;;;35.17;17.40;;;;;;;3.42;63.67;100158.19;4463081;32;34877;-80
2021/01/09 03:19:04;;;;;;;38.67;17.27;;;;;;;3.32;64.08;100166.16;4433529;32;32182;-81
2021/01/09 03:21:31;;;;;;;40.92;19.02;;;;;;;2.97;65.04;100168.16;4460534;32;33980;-80
2021/01/09 03:23:58;;;;;;;35.88;18.15;;;;;;;3.23;64.55;100161.00;4448575;32;33620;-80
2021/01/09 03:26:26;;;;;;;34.45;16.62;;;;;;;3.14;64.82;100163.69;4449212;32;33786;-81
2021/01/09 03:28:55;;;;;;;34.58;16.77;;;;;;;3.00;65.53;100169.00;4446235;32;33394;-83
2021/01/09 03:31:23;;;;;;;38.38;16.75;;;;;;;3.16;64.63;100167.13;4445195;32;34521;-83
2021/01/09 03:33:51;;;;;;;34.20;16.77;;;;;;;3.11;64.61;100168.03;4460124;32;33519;-83
2021/01/09 03:36:18;;;;;;;33.45;17.12;;;;;;;3.03;65.12;100160.25;4442679;32;34396;-83
2021/01/09 03:38:46;;;;;;;35.78;16.62;;;;;;;3.19;64.57;100166.25;4461262;32;33798;-83
2021/01/09 03:41:13;;;;;;;32.85;17.10;;;;;;;3.19;64.59;100166.25;4459843;32;33230;-83
2021/01/09 03:43:41;;;;;;;40.08;18.25;;;;;;;2.58;66.67;100171.88;4457174;32;34323;-83
2021/01/09 03:46:08;;;;;;;33.50;16.87;;;;;;;3.00;65.34;100166.37;4459716;32;35250;-83
2021/01/09 03:48:35;;;;;;;38.13;17.08;;;;;;;2.80;65.00;100171.75;4449516;32;33606;-83
2021/01/09 03:51:03;;;;;;;32.03;15.85;;;;;;;2.77;65.16;100169.16;4458093;32;33159;-83
2021/01/09 03:53:30;;;;;;;34.42;16.45;;;;;;;3.01;64.55;100159.41;4459384;32;34575;-81
2021/01/09 03:55:57;;;;;;;40.10;18.17;;;;;;;2.60;65.42;100172.72;4458979;32;33395;-82
2021/01/09 03:58:25;;;;;;;34.67;18.10;;;;;;;2.61;65.45;100172.72;4455069;32;34305;-81
2021/01/09 04:00:52;;;;;;;37.88;18.23;;;;;;;2.72;65.20;100172.66;4461323;32;33165;-82
2021/01/09 04:03:20;;;;;;;35.65;17.33;;;;;;;2.66;64.91;100165.75;4461419;32;33689;-82
2021/01/09 04:05:47;;;;;;;39.55;18.25;;;;;;;2.93;63.99;100171.66;4461548;32;33702;-82
2021/01/09 04:08:15;;;;;;;38.17;17.80;;;;;;;2.73;64.12;100177.00;4455096;32;33568;-82
2021/01/09 04:10:43;;;;;;;33.70;17.67;;;;;;;2.66;64.60;100177.88;4450891;32;33095;-82
2021/01/09 04:13:12;;;;;;;34.78;17.67;;;;;;;2.63;64.79;100176.19;4456058;32;34444;-82
2021/01/09 04:15:39;;;;;;;46.08;18.83;;;;;;;2.68;64.58;100174.41;4470554;32;33646;-82
2021/01/09 04:18:06;;;;;;;38.00;18.08;;;;;;;2.47;65.45;100175.41;4433822;32;34179;-81
2021/01/09 04:20:33;;;;;;;42.47;18.52;;;;;;;2.70;64.34;100174.38;4445374;32;33621;-81
2021/01/09 04:23:01;;;;;;;40.70;19.60;;;;;;;2.51;65.23;100178.84;4462321;32;33786;-80
2021/01/09 04:25:29;;;;;;;46.47;19.95;;;;;;;2.59;64.90;100174.47;4457014;32;33858;-82
2021/01/09 04:27:56;;;;;;;43.28;20.33;;;;;;;2.70;64.75;100175.25;4462734;32;33970;-81
2021/01/09 04:30:23;;;;;;;41.15;19.48;;;;;;;2.28;66.00;100164.19;4460188;32;33215;-81
2021/01/09 04:32:51;;;;;;;42.78;20.37;;;;;;;2.44;65.56;100175.41;4448798;32;33714;-81
2021/01/09 04:35:18;;;;;;;41.83;18.60;;;;;;;2.55;65.29;100172.72;4434325;32;34159;-81
2021/01/09 04:37:45;;;;;;;48.55;20.75;;;;;;;2.47;65.28;100169.28;4461561;32;33611;-81
2021/01/09 04:40:13;;;;;;;46.03;20.58;;;;;;;2.57;64.93;100165.78;4451083;32;33029;-80
2021/01/09 04:42:40;;;;;;;51.35;21.45;;;;;;;2.55;65.07;100178.81;4447879;32;32264;-80
2021/01/09 04:45:08;;;;;;;52.75;22.80;;;;;;;2.59;64.85;100174.47;4464238;32;33428;-81
2021/01/09 04:47:37;;;;;;;53.45;21.55;;;;;;;2.51;65.23;100171.00;4453614;32;34264;-81
2021/01/09 04:50:05;;;;;;;44.40;20.52;;;;;;;2.64;64.75;100172.69;4457595;32;34176;-80
2021/01/09 04:52:33;;;;;;;46.97;21.20;;;;;;;2.69;64.65;100180.47;4446873;32;34095;-81
2021/01/09 04:55:01;;;;;;;49.72;20.50;;;;;;;2.34;66.02;100178.94;4432811;32;34158;-81
2021/01/09 04:57:32;;;;;;;44.78;19.70;;;;;;;2.70;64.89;100183.06;4449104;32;34544;-81
2021/01/09 04:59:59;;;;;;;48.70;20.88;;;;;;;2.57;65.10;100181.44;4459039;32;34295;-81
2021/01/09 05:02:28;;;;;;;46.03;20.75;;;;;;;2.62;64.70;100184.88;4450603;32;33644;-81
2021/01/09 05:04:55;;;;;;;44.55;19.62;;;;;;;2.75;64.47;100186.56;4448092;32;32252;-82
2021/01/09 05:07:22;;;;;;;44.25;20.25;;;;;;;2.67;64.89;100192.69;4461980;32;31941;-81
2021/01/09 05:09:50;;;;;;;48.72;21.77;;;;;;;2.68;65.22;100190.06;4457635;32;33528;-82
2021/01/09 05:12:17;;;;;;;41.78;19.55;;;;;;;2.72;65.12;100196.13;4463279;32;32905;-81
2021/01/09 05:14:44;;;;;;;55.80;23.62;;;;;;;2.59;65.51;100194.44;4464989;32;33501;-81
2021/01/09 05:17:12;;;;;;;50.42;23.70;;;;;;;2.59;65.65;100200.53;4454507;32;34304;-81
2021/01/09 05:19:40;;;;;;;47.65;21.83;;;;;;;2.58;65.57;100198.81;4461751;32;33243;-81
2021/01/09 05:22:08;;;;;;;48.50;21.02;;;;;;;2.72;65.29;100204.81;4469457;32;33459;-81
2021/01/09 05:24:37;;;;;;;45.65;20.12;;;;;;;2.87;65.04;100195.16;4439589;32;35328;-81
2021/01/09 05:27:05;;;;;;;43.45;19.50;;;;;;;2.83;65.11;100197.78;4461476;32;34452;-82
2021/01/09 05:29:33;;;;;;;52.38;21.05;;;;;;;2.99;64.75;100200.28;4448387;32;33014;-81
2021/01/09 05:32:04;;;;;;;48.08;22.10;;;;;;;2.93;64.92;100201.19;4446561;32;33213;-81
2021/01/09 05:34:43;;;;;;;48.17;22.52;;;;;;;2.89;65.11;100209.06;4449176;32;33596;-81
2021/01/09 05:37:22;;;;;;;47.47;22.20;;;;;;;3.04;64.71;100212.44;4458207;32;32718;-81
2021/01/09 05:39:53;;;;;;;49.15;21.48;;;;;;;2.96;64.75;100216.84;4464536;32;34017;-82
2021/01/09 05:42:26;;;;;;;50.47;21.77;;;;;;;2.90;65.05;100209.06;4460905;32;33428;-82
2021/01/09 05:44:55;;;;;;;45.92;20.75;;;;;;;2.88;65.06;100217.75;4464252;32;31856;-82
2021/01/09 05:47:27;;;;;;;45.40;22.05;;;;;;;2.76;65.41;100222.19;4454101;32;34219;-82
2021/01/09 05:49:55;;;;;;;;;;;;;;;2.90;64.96;100218.62;4454855;32;33214;-81
2021/01/09 05:52:25;;;;;;;42.05;17.27;;;;;;;2.78;65.42;100225.62;4462151;32;33999;-83
2021/01/09 05:54:56;;;;;;;47.88;20.60;;;;;;;2.77;65.38;100229.12;4434590;32;32744;-82
2021/01/09 05:57:30;;;;;;;46.15;21.77;;;;;;;2.74;65.52;100231.72;4449781;32;34802;-82
2021/01/09 05:59:59;;;;;;;49.35;22.20;;;;;;;2.84;65.18;100229.94;4448435;32;33690;-82
2021/01/09 06:02:27;;;;;;;56.45;25.35;;;;;;;2.72;65.82;100238.72;4449914;32;33857;-82
2021/01/09 06:04:58;;;;;;;51.78;24.40;;;;;;;2.91;65.29;100233.41;4461717;32;33394;-81
2021/01/09 06:07:32;;;;;;;49.85;24.00;;;;;;;2.92;65.19;100238.59;4452526;32;33580;-82
2021/01/09 06:10:08;;;;;;;48.28;23.20;;;;;;;2.96;65.18;100242.06;4466239;32;34223;-81
2021/01/09 06:12:36;;;;;;;48.45;21.75;;;;;;;3.01;64.77;100241.16;4464212;32;33538;-82
2021/01/09 06:15:05;;;;;;;45.05;21.17;;;;;;;2.89;64.91;100243.81;4466822;32;34294;-81
2021/01/09 06:17:33;;;;;;;50.17;22.45;;;;;;;3.00;64.86;100243.78;4462703;32;34433;-81
2021/01/09 06:20:01;;;;;;;44.42;22.45;;;;;;;3.03;64.65;100243.75;4459171;32;33078;-81
2021/01/09 06:22:30;;;;;;;43.50;20.80;;;;;;;3.07;64.70;100243.72;4461176;32;31965;-81
2021/01/09 06:24:58;;;;;;;46.75;21.37;;;;;;;3.23;64.27;100244.50;4464587;32;33877;-81
2021/01/09 06:27:28;;;;;;;45.60;21.17;;;;;;;2.96;64.84;100252.50;4447613;32;33742;-81
2021/01/09 06:30:01;;;;;;;49.53;23.55;;;;;;;2.99;65.14;100242.91;4445414;32;32875;-82
2021/01/09 06:32:36;;;;;;;43.20;19.77;;;;;;;2.96;65.18;100247.28;4479983;31;33465;-81
2021/01/09 06:35:04;;;;;;;48.50;22.33;;;;;;;2.97;65.27;100251.63;4461996;32;33775;-81
2021/01/09 06:37:31;;;;;;;46.30;22.10;;;;;;;2.95;65.10;100258.59;4450699;32;33564;-81
2021/01/09 06:39:59;;;;;;;52.97;23.23;;;;;;;3.10;64.70;100257.63;4448262;32;32564;-81
2021/01/09 06:42:27;;;;;;;49.15;23.25;;;;;;;3.11;64.53;100260.22;4461219;32;34355;-81
2021/01/09 06:44:54;;;;;;;53.40;25.12;;;;;;;3.01;64.88;100266.38;4438591;32;33898;-82
2021/01/09 06:47:29;;;;;;;53.00;24.35;;;;;;;3.07;64.77;100272.41;4459020;32;33529;-81
2021/01/09 06:50:25;;;;;;;48.78;23.35;;;;;;;3.19;64.32;100276.72;4457395;32;33260;-82
2021/01/09 06:52:53;;;;;;;46.03;22.08;;;;;;;3.21;63.65;100282.78;4441674;32;33226;-81
2021/01/09 06:55:35;;;;;;;43.75;21.90;;;;;;;3.11;63.98;100282.84;4456694;32;33811;-82
2021/01/09 06:58:08;;;;;;;44.58;21.30;;;;;;;3.07;63.91;100288.06;4460576;32;34682;-81
2021/01/09 07:00:36;;;;;;;42.47;21.12;;;;;;;3.11;63.71;100283.72;4445412;32;33276;-81
2021/01/09 07:03:23;;;;;;;44.72;21.50;;;;;;;3.19;63.51;100287.16;4458648;32;33180;-81
2021/01/09 07:05:52;;;;;;;41.70;20.90;;;;;;;3.09;63.61;100282.88;4446278;32;33503;-81
2021/01/09 07:08:25;;;;;;;47.60;21.40;;;;;;;3.24;63.05;100288.00;4446048;32;33762;-81
2021/01/09 07:10:58;;;;;;;43.95;22.45;;;;;;;3.27;62.91;100295.78;4463686;32;33357;-82
2021/01/09 07:13:27;;;;;;;51.35;23.98;;;;;;;3.22;62.71;100297.56;4449441;32;33698;-81
2021/01/09 07:16:21;;;;;;;53.45;25.92;;;;;;;3.23;62.66;100307.12;4452440;32;32920;-81
2021/01/09 07:18:50;;;;;;;48.45;23.20;;;;;;;3.25;62.74;100302.75;4459409;32;31693;-81
2021/01/09 07:21:21;;;;;;;52.35;24.80;;;;;;;3.17;63.13;100307.16;4448999;32;35327;-80
2021/01/09 07:23:52;;;;;;;50.10;23.70;;;;;;;3.14;63.18;100307.19;4460464;32;31328;-81
2021/01/09 07:26:20;;;;;;;54.88;23.87;;;;;;;3.08;63.53;100310.66;4447555;32;34907;-81
2021/01/09 07:28:48;;;;;;;50.03;24.35;;;;;;;3.05;64.10;100310.72;4462977;32;33847;-81
2021/01/09 07:31:15;;;;;;;52.53;26.80;;;;;;;3.18;64.10;100308.00;4463173;32;33906;-81
2021/01/09 07:33:44;;;;;;;48.78;22.73;;;;;;;3.20;64.30;100314.09;4445667;32;34483;-81
2021/01/09 07:36:13;;;;;;;48.63;22.40;;;;;;;3.26;64.53;100325.37;4461277;32;33523;-82
2021/01/09 07:38:44;;;;;;;52.35;23.62;;;;;;;3.39;64.42;100325.31;4447872;32;37311;-82
2021/01/09 07:41:34;;;;;;;43.13;20.90;;;;;;;3.41;64.37;100329.63;4457871;32;34181;-82
2021/01/09 07:44:15;;;;;;;43.72;22.05;;;;;;;3.44;64.39;100328.75;4460294;32;34670;-80
2021/01/09 07:46:55;;;;;;;42.83;21.10;;;;;;;3.54;63.74;100333.03;4456178;32;34158;-81
2021/01/09 07:49:30;;;;;;;45.65;22.15;;;;;;;3.62;63.94;100333.88;4444656;32;33489;-80
2021/01/09 07:52:05;;;;;;;43.05;20.95;;;;;;;3.71;63.64;100331.19;4438048;32;33318;-81
2021/01/09 07:54:43;;;;;;;40.55;21.12;;;;;;;3.79;63.41;100324.13;4442844;32;34361;-80
2021/01/09 07:57:17;;;;;;;49.78;24.00;;;;;;;3.91;62.93;100330.16;4454711;32;33830;-81
2021/01/09 07:59:53;;;;;;;50.85;23.05;;;;;;;3.83;62.84;100328.47;4460407;32;33893;-81
2021/01/09 08:02:27;;;;;;;46.75;24.48;;;;;;;3.93;62.70;100328.41;4456728;32;33236;-82
2021/01/09 08:05:07;;;;;;;40.20;19.90;;;;;;;3.91;62.73;100324.94;4462466;32;33137;-82
2021/01/09 08:07:36;;;;;;;59.17;30.27;;;;;;;4.07;62.48;100332.63;4464117;32;33792;-82
2021/01/09 08:10:20;;;;;;;51.00;27.15;;;;;;;4.25;62.15;100330.72;4450922;32;35027;-82
2021/01/09 08:12:58;;;;;;;49.25;25.50;;;;;;;4.06;63.15;100330.03;4460025;32;34142;-81
2021/01/09 08:15:27;;;;;;;45.75;22.30;;;;;;;4.05;63.37;100341.38;4476006;31;36579;-81
2021/01/09 08:17:54;;;;;;;43.03;23.05;;;;;;;4.05;63.29;100338.75;4448014;32;33407;-81
2021/01/09 08:20:22;;;;;;;52.50;28.98;;;;;;;4.28;62.94;100339.41;4460664;32;33733;-82
2021/01/09 08:22:59;;;;;;;55.53;31.23;;;;;;;4.19;63.06;100342.13;4448241;32;32927;-81
2021/01/09 08:25:32;;;;;;;48.58;26.27;;;;;;;4.79;61.43;100341.47;4455505;32;32527;-81
2021/01/09 08:28:02;;;;;;;41.17;17.87;;;;;;;4.76;61.34;100352.00;4448095;32;33848;-82
2021/01/09 08:30:31;;;;;;;39.33;18.17;;;;;;;4.93;60.43;100349.19;4458047;32;33470;-81
2021/01/09 08:33:01;;;;;;;29.52;14.40;;;;;;;4.71;61.10;100362.53;4463321;32;33227;-81
2021/01/09 08:35:29;;;;;;;31.70;16.05;;;;;;;5.09;59.71;100358.59;4473437;31;34910;-82
2021/01/09 08:37:57;;;;;;;30.85;16.20;;;;;;;4.93;60.89;100357.03;4460164;32;33186;-81
2021/01/09 08:40:26;;;;;;;31.98;14.20;;;;;;;5.11;60.04;100364.66;4460708;32;33740;-81
2021/01/09 08:43:02;;;;;;;24.98;12.77;;;;;;;5.27;59.86;100352.22;4465487;32;33201;-83
2021/01/09 08:45:47;;;;;;;24.15;13.40;;;;;;;5.05;59.73;100357.75;4457214;32;33501;-82
2021/01/09 08:48:29;;;;;;;21.98;13.10;;;;;;;5.20;59.71;100353.22;4445262;32;35287;-82
2021/01/09 08:51:03;;;;;;;26.98;14.18;;;;;;;5.04;60.00;100360.41;4461658;32;33446;-82
2021/01/09 08:53:50;;;;;;;28.55;14.45;;;;;;;5.04;59.46;100361.25;4463686;32;33057;-82
2021/01/09 08:56:22;;;;;;;24.98;14.87;;;;;;;5.40;58.50;100359.91;4464621;32;32549;-82
2021/01/09 08:58:50;;;;;;;28.05;15.52;;;;;;;5.41;59.05;100360.75;4432218;32;35677;-82
2021/01/09 09:01:45;;;;;;;27.23;14.80;;;;;;;5.37;58.64;100356.47;4458915;32;33605;-84
2021/01/09 09:04:14;;;;;;;25.75;14.40;;;;;;;5.61;59.01;100353.50;4447742;32;34266;-84
2021/01/09 09:06:43;;;;;;;23.83;12.60;;;;;;;5.67;58.02;100357.78;4441343;32;35679;-83
2021/01/09 09:09:17;;;;;;;23.33;13.40;;;;;;;5.80;57.56;100353.25;4458349;32;33735;-84
2021/01/09 09:11:50;;;;;;;24.20;13.60;;;;;;;5.94;57.08;100361.78;4435020;32;35404;-83
2021/01/09 09:14:17;;;;;;;27.65;14.55;;;;;;;6.10;55.99;100347.53;4455223;32;33338;-84
2021/01/09 09:16:45;;;;;;;22.83;13.25;;;;;;;6.14;55.55;100345.72;4457119;32;33409;-83
2021/01/09 09:19:18;;;;;;;29.00;13.73;;;;;;;6.15;55.53;100350.94;4450345;32;34220;-83
2021/01/09 09:21:49;;;;;;;23.83;13.45;;;;;;;5.85;56.06;100347.03;4447825;32;33613;-83
2021/01/09 09:24:16;;;;;;;25.80;12.07;;;;;;;6.20;56.55;100350.84;4447327;32;33019;-83
2021/01/09 09:26:44;;;;;;;22.30;11.35;;;;;;;6.35;54.96;100355.84;4444848;32;36070;-83
2021/01/09 09:29:13;;;;;;;23.98;12.18;;;;;;;5.86;55.63;100353.13;4446581;32;33491;-83
2021/01/09 09:31:41;;;;;;;20.73;12.05;;;;;;;6.09;55.43;100344.94;4463753;32;33608;-83
2021/01/09 09:34:10;;;;;;;22.40;12.50;;;;;;;6.14;55.05;100343.09;4457313;32;33883;-83
2021/01/09 09:36:58;;;;;;;22.70;12.18;;;;;;;6.33;54.92;100338.41;4456804;32;33748;-84
2021/01/09 09:39:26;;;;;;;21.33;11.85;;;;;;;6.36;55.18;100339.22;4443054;32;34123;-83
2021/01/09 09:42:01;;;;;;;24.80;14.05;;;;;;;6.70;54.15;100335.13;4445042;32;34462;-82
2021/01/09 09:44:37;;;;;;;19.75;11.95;;;;;;;6.50;55.90;100333.69;4461339;32;34254;-83
2021/01/09 09:47:08;;;;;;;21.65;12.30;;;;;;;6.74;55.91;100327.16;4460135;32;33362;-83
2021/01/09 09:49:41;;;;;;;21.20;11.68;;;;;;;7.03;54.91;100331.81;4461683;32;33772;-85
2021/01/09 09:52:15;;;;;;;;;;;;;;;7.25;52.48;100323.47;4447247;32;34555;-83
2021/01/09 09:54:42;;;;;;;20.85;11.07;;;;;;;7.66;51.04;100322.53;4457797;32;32856;-84
2021/01/09 09:57:20;;;;;;;19.95;12.70;;;;;;;7.37;51.57;100317.94;4459801;32;33728;-84
2021/01/09 10:00:13;;;;;;;17.85;11.20;;;;;;;7.34;52.61;100316.25;4447654;32;33599;-88
2021/01/09 10:02:53;;;;;;;;;;;;;;;7.61;51.16;100309.50;4450767;32;33212;-83
2021/01/09 10:05:21;;;;;;;20.02;11.38;;;;;;;7.79;50.53;100304.72;4460939;32;32848;-85
2021/01/09 10:07:49;;;;;;;20.85;11.98;;;;;;;7.86;51.00;100301.87;4449299;32;34679;-85
2021/01/09 10:10:20;;;;;;;19.45;11.02;;;;;;;7.47;51.43;100301.06;4434519;32;35631;-85
2021/01/09 10:12:54;;;;;;;22.35;12.07;;;;;;;7.89;49.90;100288.66;4445135;32;33836;-82
2021/01/09 10:15:22;;;;;;;16.65;9.80;;;;;;;7.95;50.07;100287.66;4458326;32;33302;-82
2021/01/09 10:17:55;;;;;;;22.30;12.45;;;;;;;7.86;49.83;100283.47;4441971;32;34350;-82
2021/01/09 10:20:23;;;;;;;16.60;10.00;;;;;;;8.15;50.03;100279.25;4461163;32;34492;-81
2021/01/09 10:22:51;;;;;;;19.33;10.25;;;;;;;8.25;49.54;100280.72;4466418;32;34266;-82
2021/01/09 10:25:18;;;;;;;21.25;10.88;;;;;;;8.04;49.99;100283.94;4443268;32;33313;-82
2021/01/09 10:27:46;;;;;;;16.62;9.73;;;;;;;8.40;47.58;100275.09;4447790;32;34572;-82
2021/01/09 10:30:14;;;;;;;15.63;9.95;;;;;;;8.10;48.41;100279.38;4434163;32;35199;-82
2021/01/09 10:32:41;;;;;;;16.60;9.93;;;;;;;8.05;48.73;100278.63;4443698;32;34587;-81
2021/01/09 10:35:09;;;;;;;19.05;10.88;;;;;;;8.19;47.87;100265.97;4460290;32;33242;-83
2021/01/09 10:37:36;;;;;;;15.88;9.45;;;;;;;8.35;47.63;100258.53;4447678;32;34108;-82
2021/01/09 10:40:04;;;;;;;16.27;9.18;;;;;;;8.20;47.46;100253.69;4458260;32;33424;-82
2021/01/09 10:42:31;;;;;;;14.43;9.15;;;;;;;8.37;47.94;100261.16;4444842;32;33542;-82
2021/01/09 10:45:00;;;;;;;13.10;8.43;;;;;;;8.57;46.41;100255.34;4446084;32;32989;-82
2021/01/09 10:47:27;;;;;;;23.25;12.50;;;;;;;8.27;47.61;100254.41;4458791;32;33121;-82
2021/01/09 10:49:56;;;;;;;19.20;10.60;;;;;;;7.59;50.72;100257.87;4443334;32;101208;-82
2021/01/09 10:52:25;;;;;;;19.67;9.88;;;;;;;8.21;47.64;100244.88;4460135;32;33235;-82
2021/01/09 10:54:52;;;;;;;18.67;11.25;;;;;;;8.09;47.46;100250.47;4456888;32;33177;-82
2021/01/09 10:57:20;;;;;;;20.37;9.95;;;;;;;7.84;49.14;100248.50;4444436;32;31956;-82
2021/01/09 10:59:47;;;;;;;19.98;10.45;;;;;;;7.98;49.01;100239.38;4442767;32;34142;-82
2021/01/09 11:02:14;;;;;;;17.92;10.43;;;;;;;7.94;48.89;100238.59;4455838;32;32699;-82
2021/01/09 11:04:42;;;;;;;17.08;9.65;;;;;;;7.72;48.90;100233.00;4459070;32;34114;-82
2021/01/09 11:07:09;;;;;;;18.40;9.80;;;;;;;7.76;49.25;100239.91;4460926;32;32581;-82
2021/01/09 11:09:36;;;;;;;14.93;9.10;;;;;;;7.47;50.68;100242.41;4458365;32;33743;-82
2021/01/09 11:12:04;;;;;;;19.17;10.88;;;;;;;8.16;48.12;100233.63;4445064;32;34353;-82
2021/01/09 11:14:31;;;;;;;21.17;10.82;;;;;;;8.23;48.41;100236.97;4445115;32;32954;-82
2021/01/09 11:16:59;;;;;;;16.75;9.85;;;;;;;8.43;47.46;100232.91;4454151;32;33314;-82
2021/01/09 11:19:27;;;;;;;19.62;10.88;;;;;;;8.44;47.40;100226.72;4458486;32;33738;-82
2021/01/09 11:22:00;;;;;;;15.55;9.80;;;;;;;8.47;47.30;100236.31;4442879;32;33373;-82
2021/01/09 11:24:30;;;;;;;17.55;10.25;;;;;;;7.95;50.33;100238.53;4457523;32;33906;-82
2021/01/09 11:26:59;;;;;;;18.40;9.93;;;;;;;8.36;48.55;100235.72;4442970;32;35147;-82
2021/01/09 11:29:27;;;;;;;19.25;11.18;;;;;;;8.54;47.39;100231.72;4456115;32;34729;-82
2021/01/09 11:31:57;;;;;;;18.23;10.55;;;;;;;8.72;46.43;100231.19;4444681;32;34106;-82